Time;durP1;ratioP1;P1;durP2;ratioP2;P2;SDS_P1;SDS_P2;PMS_P1;PMS_P2;Temp;Humidity;BMP_temperature;BMP_pressure;BME280_temperature;BME280_humidity;BME280_pressure;Samples;Min_cycle;Max_cycle;Signal;HPM_P1;HPM_P2
2021/01/14 00:00:06;;;;;;;;;;;3.30;99.90;;;;;;5070393;28;19931;-68
2021/01/14 00:02:31;;;;;;;;;;;3.20;99.90;;;;;;5070385;28;19909;-68
2021/01/14 00:04:57;;;;;;;;;;;3.10;99.90;;;;;;5070656;28;19915;-67
2021/01/14 00:07:22;;;;;;;;;;;3.10;99.90;;;;;;5069906;28;19908;-70
2021/01/14 00:09:48;;;;;;;;;;;3.00;99.90;;;;;;5070559;28;20058;-70
2021/01/14 00:12:13;;;;;;;;;;;3.00;99.90;;;;;;5063409;28;19916;-67
2021/01/14 00:14:39;;;;;;;;;;;3.00;99.90;;;;;;5049582;28;20431;-69
2021/01/14 00:17:04;;;;;;;;;;;3.00;99.90;;;;;;5050109;28;20246;-68
2021/01/14 00:19:30;;;;;;;;;;;3.00;99.90;;;;;;5050568;28;19908;-71
2021/01/14 00:21:56;;;;;;;;;;;3.00;99.90;;;;;;5050242;28;19909;-72
2021/01/14 00:24:21;;;;;;;;;;;3.00;99.90;;;;;;5049595;28;19948;-68
2021/01/14 00:26:47;;;;;;;;;;;3.00;99.90;;;;;;5049767;28;20004;-67
2021/01/14 00:29:13;;;;;;;;;;;2.90;99.90;;;;;;5050440;28;20003;-68
2021/01/14 00:31:39;;;;;;;;;;;2.90;99.90;;;;;;5049902;28;19925;-72
2021/01/14 00:34:04;;;;;;;;;;;2.80;99.90;;;;;;5049568;28;19917;-69
2021/01/14 00:36:31;;;;;;;;;;;2.90;99.90;;;;;;5050409;28;19920;-69
2021/01/14 00:38:57;;;;;;;;;;;2.90;99.90;;;;;;5049889;28;19909;-70
2021/01/14 00:41:23;;;;;;;;;;;2.90;99.90;;;;;;5049829;28;19962;-69
2021/01/14 00:43:49;;;;;;;;;;;2.90;99.90;;;;;;5068121;28;20292;-67
2021/01/14 00:46:21;;;;;;;;;;;3.00;99.90;;;;;;5069507;28;19920;-72
2021/01/14 00:48:46;;;;;;;;;;;3.00;99.90;;;;;;5070578;28;20321;-71
2021/01/14 00:51:12;;;;;;;;;;;3.10;99.90;;;;;;5070654;28;19934;-69
2021/01/14 00:53:38;;;;;;;;;;;3.10;99.90;;;;;;5068963;28;20097;-68
2021/01/14 00:56:04;;;;;;;;;;;3.10;99.90;;;;;;5069537;28;19935;-68
2021/01/14 00:58:29;;;;;;;;;;;3.10;99.90;;;;;;5070273;28;19908;-69
2021/01/14 01:00:55;;;;;;;;;;;3.00;99.90;;;;;;5069869;28;20009;-69
2021/01/14 01:03:20;;;;;;;;;;;3.10;99.90;;;;;;5069175;28;20011;-70
2021/01/14 01:05:46;;;;;;;;;;;3.10;99.90;;;;;;5068743;28;19920;-74
2021/01/14 01:08:11;;;;;;;;;;;3.10;99.90;;;;;;5069367;28;20269;-70
2021/01/14 01:10:37;;;;;;;;;;;3.20;99.90;;;;;;5069996;28;19913;-70
2021/01/14 01:13:02;;;;;;;;;;;3.20;99.90;;;;;;5055074;28;20262;-68
2021/01/14 01:15:29;;;;;;;;;;;3.20;99.90;;;;;;5049441;28;20000;-68
2021/01/14 01:17:55;;;;;;;;;;;3.20;99.90;;;;;;5049710;28;19944;-71
2021/01/14 01:20:20;;;;;;;;;;;3.20;99.90;;;;;;5053605;28;20396;-67
2021/01/14 01:22:46;;;;;;;;;;;3.30;99.90;;;;;;5051951;28;19915;-69
2021/01/14 01:25:11;;;;;;;;;;;3.30;99.90;;;;;;5052847;28;19916;-69
2021/01/14 01:27:37;;;;;;;;;;;3.30;99.90;;;;;;5052439;28;19932;-72
2021/01/14 01:30:03;;;;;;;;;;;3.30;99.90;;;;;;5053119;28;19908;-69
2021/01/14 01:32:28;;;;;;;;;;;3.20;99.90;;;;;;5052976;28;20296;-68
2021/01/14 01:34:54;;;;;;;;;;;3.20;99.90;;;;;;5053136;28;19916;-68
2021/01/14 01:37:19;;;;;;;;;;;3.20;99.90;;;;;;5053509;28;19912;-72
2021/01/14 01:39:46;;;;;;;;;;;3.30;99.90;;;;;;5053308;28;20349;-71
2021/01/14 01:42:11;;;;;;;;;;;3.30;99.90;;;;;;5058017;28;19920;-69
2021/01/14 01:44:37;;;;;;;;;;;3.30;99.90;;;;;;5072459;28;19909;-68
2021/01/14 01:47:06;;;;;;;;;;;3.30;99.90;;;;;;5072395;28;19916;-75
2021/01/14 01:49:36;;;;;;;;;;;3.20;99.90;;;;;;5073358;28;20357;-68
2021/01/14 01:52:06;;;;;;;;;;;3.20;99.90;;;;;;5072484;28;19924;-69
2021/01/14 01:54:32;;;;;;;;;;;3.30;99.90;;;;;;5072306;28;19930;-71
2021/01/14 01:56:59;;;;;;;;;;;3.30;99.90;;;;;;5072353;28;19991;-69
2021/01/14 01:59:25;;;;;;;;;;;3.30;99.90;;;;;;5073001;28;20214;-68
2021/01/14 02:01:51;;;;;;;;;;;3.20;99.90;;;;;;5072136;28;19991;-68
2021/01/14 02:04:16;;;;;;;;;;;3.20;99.90;;;;;;5072462;28;19908;-69
2021/01/14 02:06:46;;;;;;;;;;;3.20;99.90;;;;;;5072807;28;19999;-69
2021/01/14 02:09:11;;;;;;;;;;;3.20;99.90;;;;;;5072733;28;19909;-69
2021/01/14 02:11:41;;;;;;;;;;;3.30;99.90;;;;;;5070622;28;19915;-69
2021/01/14 02:14:12;;;;;;;;;;;3.30;99.90;;;;;;5051200;28;19939;-69
2021/01/14 02:16:38;;;;;;;;;;;3.20;99.90;;;;;;5051893;28;19961;-68
2021/01/14 02:19:11;;;;;;;;;;;3.20;99.90;;;;;;5052439;28;19954;-71
2021/01/14 02:21:37;;;;;;;;;;;3.20;99.90;;;;;;5052800;28;20331;-69
2021/01/14 02:24:09;;;;;;;;;;;3.20;99.90;;;;;;5051329;28;20376;-70
2021/01/14 02:26:36;;;;;;;;;;;3.10;99.90;;;;;;5051787;28;19956;-69
2021/01/14 02:29:02;;;;;;;;;;;3.10;99.90;;;;;;5051973;28;19909;-69
2021/01/14 02:31:27;;;;;;;;;;;3.00;99.90;;;;;;5051663;28;19916;-68
2021/01/14 02:33:54;;;;;;;;;;;3.00;99.90;;;;;;5051318;28;19913;-69
2021/01/14 02:36:23;;;;;;;;;;;3.00;99.90;;;;;;5052568;28;19908;-68
2021/01/14 02:38:49;;;;;;;;;;;3.00;99.90;;;;;;5051979;28;19917;-69
2021/01/14 02:41:15;;;;;;;;;;;2.90;99.90;;;;;;5051365;28;19923;-69
2021/01/14 02:43:41;;;;;;;;;;;2.90;99.90;;;;;;5069255;28;19908;-71
2021/01/14 02:46:07;;;;;;;;;;;2.90;99.90;;;;;;5071086;28;19978;-71
2021/01/14 02:48:48;;;;;;;;;;;2.90;99.90;;;;;;5072364;28;20007;-69
2021/01/14 02:51:18;;;;;;;;;;;2.90;99.90;;;;;;5072254;28;19915;-69
2021/01/14 02:53:43;;;;;;;;;;;2.90;99.90;;;;;;5070997;28;19967;-69
2021/01/14 02:56:10;;;;;;;;;;;2.90;99.90;;;;;;5071322;28;19916;-68
2021/01/14 02:58:36;;;;;;;;;;;3.00;99.90;;;;;;5071818;28;19909;-69
2021/01/14 03:01:01;;;;;;;;;;;3.00;99.90;;;;;;5071494;28;19955;-68
2021/01/14 03:03:27;;;;;;;;;;;3.00;99.90;;;;;;5071294;28;19962;-67
2021/01/14 03:05:52;;;;;;;;;;;3.00;99.90;;;;;;5071925;28;20327;-72
2021/01/14 03:08:18;;;;;;;;;;;3.00;99.90;;;;;;5071542;28;19916;-70
2021/01/14 03:10:44;;;;;;;;;;;3.00;99.90;;;;;;5071627;28;20252;-71
2021/01/14 03:13:10;;;;;;;;;;;3.10;99.90;;;;;;5055859;28;20407;-69
2021/01/14 03:15:35;;;;;;;;;;;3.10;99.90;;;;;;5051476;28;19948;-69
2021/01/14 03:18:01;;;;;;;;;;;3.10;99.90;;;;;;5051134;28;19999;-71
2021/01/14 03:20:26;;;;;;;;;;;3.10;99.90;;;;;;5051939;28;19909;-68
2021/01/14 03:22:52;;;;;;;;;;;3.10;99.90;;;;;;5050630;28;19931;-69
2021/01/14 03:25:17;;;;;;;;;;;3.10;99.90;;;;;;5071984;22;19929;-73
2021/01/14 03:27:43;;;;;;;;;;;3.10;99.90;;;;;;5068387;28;20486;-73
2021/01/14 03:30:10;;;;;;;;;;;3.20;99.90;;;;;;5069835;28;19928;-73
2021/01/14 03:32:35;;;;;;;;;;;3.20;99.90;;;;;;5069991;28;19977;-73
2021/01/14 03:35:01;;;;;;;;;;;3.20;99.90;;;;;;5069756;28;20428;-73
2021/01/14 03:37:26;;;;;;;;;;;3.20;99.90;;;;;;5069716;28;19958;-73
2021/01/14 03:39:52;;;;;;;;;;;3.20;99.90;;;;;;5069767;28;19915;-73
2021/01/14 03:42:18;;;;;;;;;;;3.20;99.90;;;;;;5068064;28;19908;-73
2021/01/14 03:44:43;;;;;;;;;;;3.20;99.90;;;;;;5068906;28;19912;-73
2021/01/14 03:47:09;;;;;;;;;;;3.20;99.90;;;;;;5068980;28;20361;-73
2021/01/14 03:49:34;;;;;;;;;;;3.20;99.90;;;;;;5069650;28;19995;-73
2021/01/14 03:52:00;;;;;;;;;;;3.30;99.90;;;;;;5069171;28;20272;-73
2021/01/14 03:54:25;;;;;;;;;;;3.30;99.90;;;;;;5069093;28;19919;-71
2021/01/14 03:56:51;;;;;;;;;;;3.20;99.90;;;;;;5068342;28;20011;-71
2021/01/14 03:59:16;;;;;;;;;;;3.20;99.90;;;;;;5069333;28;19921;-71
2021/01/14 04:01:42;;;;;;;;;;;3.20;99.90;;;;;;5068997;28;20478;-71
2021/01/14 04:04:07;;;;;;;;;;;3.20;99.90;;;;;;5068104;28;19916;-71
2021/01/14 04:06:36;;;;;;;;;;;3.20;99.90;;;;;;5069439;28;20337;-74
2021/01/14 04:09:02;;;;;;;;;;;3.10;99.90;;;;;;5069363;28;19980;-74
2021/01/14 04:11:28;;;;;;;;;;;3.10;99.90;;;;;;5068327;28;20241;-74
2021/01/14 04:13:53;;;;;;;;;;;3.10;99.90;;;;;;5056896;28;19913;-71
2021/01/14 04:16:22;;;;;;;;;;;3.10;99.90;;;;;;5068543;28;19916;-71
2021/01/14 04:18:47;;;;;;;;;;;3.00;99.90;;;;;;5069366;28;19920;-73
2021/01/14 04:21:14;;;;;;;;;;;3.00;99.90;;;;;;5069185;28;19909;-74
2021/01/14 04:23:39;;;;;;;;;;;3.00;99.90;;;;;;5068510;28;19915;-73
2021/01/14 04:26:05;;;;;;;;;;;2.90;99.90;;;;;;5068044;28;20352;-74
2021/01/14 04:28:30;;;;;;;;;;;3.00;99.90;;;;;;5069377;28;19916;-73
2021/01/14 04:30:56;;;;;;;;;;;2.90;99.90;;;;;;5068767;28;19909;-73
2021/01/14 04:33:21;;;;;;;;;;;2.90;99.90;;;;;;5068902;28;19912;-74
2021/01/14 04:35:48;;;;;;;;;;;2.90;99.90;;;;;;5069518;28;20285;-73
2021/01/14 04:38:14;;;;;;;;;;;2.90;99.90;;;;;;5068996;28;20379;-73
2021/01/14 04:40:39;;;;;;;;;;;2.80;99.90;;;;;;5069229;28;20627;-73
2021/01/14 04:43:06;;;;;;;;;;;2.80;99.90;;;;;;5067614;28;19962;-71
2021/01/14 04:45:32;;;;;;;;;;;2.80;99.90;;;;;;5069172;28;19917;-73
2021/01/14 04:47:57;;;;;;;;;;;2.80;99.90;;;;;;5068887;28;20008;-74
2021/01/14 04:50:26;;;;;;;;;;;2.80;99.90;;;;;;5069657;28;19908;-73
2021/01/14 04:52:54;;;;;;;;;;;2.80;99.90;;;;;;5070976;28;19991;-73
2021/01/14 04:55:21;;;;;;;;;;;2.80;99.90;;;;;;5073100;28;20332;-73
2021/01/14 04:57:49;;;;;;;;;;;2.80;99.90;;;;;;5072665;28;20029;-73
2021/01/14 05:00:16;;;;;;;;;;;2.90;99.90;;;;;;5073218;28;19999;-73
2021/01/14 05:02:57;;;;;;;;;;;2.80;99.90;;;;;;5072695;28;19967;-73
2021/01/14 05:05:23;;;;;;;;;;;2.80;99.90;;;;;;5073358;28;19909;-71
2021/01/14 05:07:57;;;;;;;;;;;2.80;99.90;;;;;;5072571;28;19962;-71
2021/01/14 05:10:23;;;;;;;;;;;2.80;99.90;;;;;;5073088;28;20007;-71
2021/01/14 05:12:49;;;;;;;;;;;2.80;99.90;;;;;;5071673;28;20011;-71
2021/01/14 05:15:15;;;;;;;;;;;2.80;99.90;;;;;;5072732;28;19979;-71
2021/01/14 05:17:40;;;;;;;;;;;2.70;99.90;;;;;;5072852;28;19958;-71
2021/01/14 05:20:06;;;;;;;;;;;2.70;99.90;;;;;;5072658;28;20292;-71
2021/01/14 05:22:32;;;;;;;;;;;2.60;99.90;;;;;;5072000;28;19909;-73
2021/01/14 05:25:07;;;;;;;;;;;2.60;99.90;;;;;;5071614;28;19942;-73
2021/01/14 05:27:34;;;;;;;;;;;2.60;99.90;;;;;;5071487;28;19995;-73
2021/01/14 05:30:07;;;;;;;;;;;2.60;99.90;;;;;;5072591;28;19981;-73
2021/01/14 05:32:36;;;;;;;;;;;2.70;99.90;;;;;;5071607;28;19913;-72
2021/01/14 05:35:05;;;;;;;;;;;2.70;99.90;;;;;;5072324;28;20409;-72
2021/01/14 05:37:35;;;;;;;;;;;2.70;99.90;;;;;;5072356;28;19915;-72
2021/01/14 05:40:02;;;;;;;;;;;2.70;99.90;;;;;;5071870;28;20004;-73
2021/01/14 05:42:28;;;;;;;;;;;2.70;99.90;;;;;;5071173;28;20050;-72
2021/01/14 05:44:53;;;;;;;;;;;2.70;99.90;;;;;;5071904;28;20019;-72
2021/01/14 05:47:20;;;;;;;;;;;2.70;99.90;;;;;;5070246;28;19920;-72
2021/01/14 05:49:58;;;;;;;;;;;2.70;99.90;;;;;;5072716;28;19909;-72
2021/01/14 05:52:24;;;;;;;;;;;2.70;99.90;;;;;;5071678;28;19909;-72
2021/01/14 05:54:58;;;;;;;;;;;2.70;99.90;;;;;;5072518;28;19919;-72
2021/01/14 05:57:28;;;;;;;;;;;2.70;99.90;;;;;;5072114;28;19910;-72
2021/01/14 05:59:54;;;;;;;;;;;2.70;99.90;;;;;;5068579;28;20341;-71
2021/01/14 06:02:27;;;;;;;;;;;2.70;99.90;;;;;;5049387;28;20062;-72
2021/01/14 06:04:52;;;;;;;;;;;2.70;99.90;;;;;;5049315;28;19915;-74
2021/01/14 06:07:18;;;;;;;;;;;2.70;99.90;;;;;;5050611;28;20366;-71
2021/01/14 06:09:45;;;;;;;;;;;2.60;99.90;;;;;;5049081;28;19912;-71
2021/01/14 06:12:11;;;;;;;;;;;2.60;99.90;;;;;;5053471;28;20330;-71
2021/01/14 06:14:37;;;;;;;;;;;2.60;99.90;;;;;;5069985;28;20030;-72
2021/01/14 06:17:03;;;;;;;;;;;2.50;99.90;;;;;;5071411;28;19909;-72
2021/01/14 06:19:30;;;;;;;;;;;2.50;99.90;;;;;;5070598;28;20521;-72
2021/01/14 06:21:56;;;;;;;;;;;2.50;99.90;;;;;;5071429;28;19969;-73
2021/01/14 06:24:25;;;;;;;;;;;2.50;99.90;;;;;;5076348;28;20018;-73
2021/01/14 06:26:55;;;;;;;;;;;2.50;99.90;;;;;;5081614;28;19924;-72
2021/01/14 06:29:24;;;;;;;;;;;2.50;99.90;;;;;;5085913;28;20062;-71
2021/01/14 06:31:50;;;;;;;;;;;2.50;99.90;;;;;;5091158;28;19915;-72
2021/01/14 06:34:19;;;;;;;;;;;2.40;99.90;;;;;;5091454;28;19913;-70
2021/01/14 06:36:48;;;;;;;;;;;2.50;99.90;;;;;;5091570;28;19947;-71
2021/01/14 06:39:16;;;;;;;;;;;2.50;99.90;;;;;;5091269;28;19962;-71
2021/01/14 06:41:43;;;;;;;;;;;2.50;99.90;;;;;;5088845;28;19926;-72
2021/01/14 06:44:09;;;;;;;;;;;2.50;99.90;;;;;;5070571;28;19912;-73
2021/01/14 06:46:35;;;;;;;;;;;2.50;99.90;;;;;;5070726;28;20395;-73
2021/01/14 06:49:08;;;;;;;;;;;2.50;99.90;;;;;;5071555;28;20061;-71
2021/01/14 06:51:46;;;;;;;;;;;2.50;99.90;;;;;;5071260;28;19992;-69
2021/01/14 06:54:11;;;;;;;;;;;2.40;99.90;;;;;;5070202;28;19939;-69
2021/01/14 06:56:45;;;;;;;;;;;2.40;99.90;;;;;;5070134;28;19908;-70
2021/01/14 06:59:14;;;;;;;;;;;2.30;99.90;;;;;;5070991;28;19919;-72
2021/01/14 07:01:43;;;;;;;;;;;2.40;99.90;;;;;;5070519;28;19915;-73
2021/01/14 07:04:12;;;;;;;;;;;2.40;99.90;;;;;;5067781;28;19912;-71
2021/01/14 07:06:47;;;;;;;;;;;2.40;99.90;;;;;;5069829;28;19960;-71
2021/01/14 07:09:13;;;;;;;;;;;2.40;99.90;;;;;;5069830;28;19973;-71
2021/01/14 07:11:41;;;;;;;;;;;2.50;99.90;;;;;;5068617;28;19955;-71
2021/01/14 07:14:14;;;;;;;;;;;2.50;99.90;;;;;;5067502;28;20388;-71
2021/01/14 07:16:43;;;;;;;;;;;2.40;99.90;;;;;;5068584;28;20368;-72
2021/01/14 07:19:08;;;;;;;;;;;2.40;99.90;;;;;;5069666;28;19916;-72
2021/01/14 07:21:34;;;;;;;;;;;2.40;99.90;;;;;;5069995;28;19916;-71
2021/01/14 07:24:09;;;;;;;;;;;2.50;99.90;;;;;;5068413;28;20335;-71
2021/01/14 07:26:38;;;;;;;;;;;2.40;99.90;;;;;;5068922;28;20384;-71
2021/01/14 07:29:04;;;;;;;;;;;2.40;99.90;;;;;;5069830;28;19912;-71
2021/01/14 07:31:30;;;;;;;;;;;2.40;99.90;;;;;;5069076;28;19917;-70
2021/01/14 07:33:56;;;;;;;;;;;2.50;99.90;;;;;;5068380;28;20242;-70
2021/01/14 07:36:23;;;;;;;;;;;2.40;99.90;;;;;;5068978;28;19912;-70
2021/01/14 07:38:49;;;;;;;;;;;2.40;99.90;;;;;;5068779;28;20010;-70
2021/01/14 07:41:15;;;;;;;;;;;2.50;99.90;;;;;;5068606;28;19920;-71
2021/01/14 07:43:41;;;;;;;;;;;2.50;99.90;;;;;;5068890;28;19919;-71
2021/01/14 07:46:13;;;;;;;;;;;2.50;99.90;;;;;;5067650;28;20007;-70
2021/01/14 07:48:39;;;;;;;;;;;2.50;99.90;;;;;;5069557;28;19920;-71
2021/01/14 07:51:04;;;;;;;;;;;2.50;99.90;;;;;;5069494;28;19913;-71
2021/01/14 07:53:30;;;;;;;;;;;2.50;99.90;;;;;;5068117;28;19916;-71
2021/01/14 07:55:55;;;;;;;;;;;2.50;99.90;;;;;;5068315;28;19912;-71
2021/01/14 07:58:22;;;;;;;;;;;2.60;99.90;;;;;;5068992;28;19913;-71
2021/01/14 08:00:57;;;;;;;;;;;2.60;99.90;;;;;;5069365;28;19960;-73
2021/01/14 08:03:27;;;;;;;;;;;2.60;99.90;;;;;;5068756;28;19912;-72
2021/01/14 08:06:03;;;;;;;;;;;2.60;99.90;;;;;;5060943;28;20373;-72
2021/01/14 08:08:33;;;;;;;;;;;2.60;99.90;;;;;;5073483;28;19917;-72
2021/01/14 08:11:08;;;;;;;;;;;2.70;99.90;;;;;;5075191;28;19912;-72
2021/01/14 08:13:52;;;;;;;;;;;2.70;99.90;;;;;;5075649;28;19916;-72
2021/01/14 08:16:34;;;;;;;;;;;2.70;99.90;;;;;;5074569;28;20391;-73
2021/01/14 08:19:18;;;;;;;;;;;2.80;99.90;;;;;;5073724;28;19969;-73
2021/01/14 08:21:46;;;;;;;;;;;2.70;99.90;;;;;;5069660;28;19916;-73
2021/01/14 08:24:12;;;;;;;;;;;2.70;99.90;;;;;;5067622;28;19912;-73
2021/01/14 08:26:51;;;;;;;;;;;2.80;99.90;;;;;;5067569;28;19916;-73
2021/01/14 08:29:40;;;;;;;;;;;2.80;99.90;;;;;;5060268;28;20289;-73
2021/01/14 08:32:24;;;;;;;;;;;2.70;99.90;;;;;;5067586;28;19916;-73
2021/01/14 08:34:50;;;;;;;;;;;2.80;99.90;;;;;;5067882;28;19939;-72
2021/01/14 08:37:26;;;;;;;;;;;2.80;99.90;;;;;;5068551;28;19912;-73
2021/01/14 08:39:52;;;;;;;;;;;2.90;99.90;;;;;;5074573;28;19912;-72
2021/01/14 08:42:19;;;;;;;;;;;2.90;99.90;;;;;;5068468;28;19923;-72
2021/01/14 08:44:46;;;;;;;;;;;2.90;99.90;;;;;;5074069;28;20073;-72
2021/01/14 08:47:11;;;;;;;;;;;3.00;99.90;;;;;;5070944;28;20009;-71
2021/01/14 08:49:37;;;;;;;;;;;3.00;99.90;;;;;;5059748;28;20303;-72
2021/01/14 08:52:03;;;;;;;;;;;3.00;99.90;;;;;;5061372;28;20036;-71
2021/01/14 08:54:29;;;;;;;;;;;3.00;99.90;;;;;;5067654;28;20589;-71
2021/01/14 08:57:02;;;;;;;;;;;3.00;99.90;;;;;;5067735;28;19952;-72
2021/01/14 08:59:28;;;;;;;;;;;3.00;99.90;;;;;;5068299;28;19921;-71
2021/01/14 09:01:56;;;;;;;;;;;3.00;99.90;;;;;;5067795;28;19919;-72
2021/01/14 09:04:25;;;;;;;;;;;3.10;99.90;;;;;;5068353;28;19913;-72
2021/01/14 09:06:51;;;;;;;;;;;3.20;99.90;;;;;;5068421;28;19970;-72
2021/01/14 09:09:16;;;;;;;;;;;3.10;99.90;;;;;;5073820;28;20368;-72
2021/01/14 09:11:42;;;;;;;;;;;3.20;99.90;;;;;;5073085;28;19970;-72
2021/01/14 09:14:12;;;;;;;;;;;3.20;99.90;;;;;;5071968;28;19970;-71
2021/01/14 09:16:38;;;;;;;;;;;3.20;99.90;;;;;;5075422;28;19986;-73
2021/01/14 09:19:14;;;;;;;;;;;3.20;99.90;;;;;;5073664;28;19987;-72
2021/01/14 09:21:39;;;;;;;;;;;3.30;99.90;;;;;;5072887;28;19983;-72
2021/01/14 09:24:09;;;;;;;;;;;3.20;99.90;;;;;;5074587;28;19996;-73
2021/01/14 09:26:38;;;;;;;;;;;3.20;99.90;;;;;;5074148;28;19928;-73
2021/01/14 09:29:04;;;;;;;;;;;3.10;99.90;;;;;;5067417;28;19957;-73
2021/01/14 09:31:30;;;;;;;;;;;3.10;99.90;;;;;;5074158;28;19920;-73
2021/01/14 09:33:57;;;;;;;;;;;3.00;99.90;;;;;;5076636;28;19920;-72
2021/01/14 09:36:23;;;;;;;;;;;3.00;99.90;;;;;;5072769;28;19923;-73
2021/01/14 09:38:50;;;;;;;;;;;3.00;99.90;;;;;;5074445;28;20003;-72
2021/01/14 09:41:23;;;;;;;;;;;3.00;99.90;;;;;;5078191;28;20267;-73
2021/01/14 09:43:49;;;;;;;;;;;3.00;99.90;;;;;;5075783;28;19912;-73
2021/01/14 09:46:15;;;;;;;;;;;3.10;99.90;;;;;;5076642;28;19955;-73
2021/01/14 09:48:41;;;;;;;;;;;3.20;99.90;;;;;;5078345;28;19955;-73
2021/01/14 09:51:07;;;;;;;;;;;3.20;99.90;;;;;;5079408;28;19973;-73
2021/01/14 09:53:33;;;;;;;;;;;3.20;99.90;;;;;;5075581;28;20000;-72
2021/01/14 09:56:00;;;;;;;;;;;3.20;99.90;;;;;;5080215;28;19938;-73
2021/01/14 09:58:27;;;;;;;;;;;3.30;99.90;;;;;;5081142;28;20284;-73
2021/01/14 10:00:53;;;;;;;;;;;3.40;99.90;;;;;;5073211;28;20019;-73
2021/01/14 10:03:20;;;;;;;;;;;3.50;99.90;;;;;;5078218;28;20452;-72
2021/01/14 10:05:48;;;;;;;;;;;3.60;99.90;;;;;;5077426;28;19927;-72
2021/01/14 10:08:16;;;;;;;;;;;3.60;99.90;;;;;;5073378;28;19942;-72
2021/01/14 10:10:42;;;;;;;;;;;3.60;99.90;;;;;;5076355;28;19927;-72
2021/01/14 10:13:12;;;;;;;;;;;3.50;99.90;;;;;;5077908;28;19913;-72
2021/01/14 10:15:37;;;;;;;;;;;3.50;99.90;;;;;;5079895;28;20006;-72
2021/01/14 10:18:03;;;;;;;;;;;3.40;99.90;;;;;;5077565;28;20014;-72
2021/01/14 10:20:31;;;;;;;;;;;3.40;99.90;;;;;;5077234;28;19920;-73
2021/01/14 10:22:56;;;;;;;;;;;3.40;99.90;;;;;;5077232;28;19920;-73
2021/01/14 10:25:21;;;;;;;;;;;3.40;99.90;;;;;;5077913;28;19924;-73
2021/01/14 10:27:57;;;;;;;;;;;3.40;99.90;;;;;;5085633;22;19940;-70
2021/01/14 10:30:23;;;;;;;;;;;3.50;99.90;;;;;;5055658;28;19982;-70
2021/01/14 10:32:49;;;;;;;;;;;3.40;99.90;;;;;;5065404;28;19948;-69
2021/01/14 10:35:21;;;;;;;;;;;3.30;99.90;;;;;;5069693;28;20277;-70
2021/01/14 10:37:46;;;;;;;;;;;3.40;99.90;;;;;;5057352;28;19917;-70
2021/01/14 10:40:19;;;;;;;;;;;3.50;99.90;;;;;;5052411;28;19921;-70
2021/01/14 10:42:48;;;;;;;;;;;3.50;99.90;;;;;;5052928;28;19936;-69
2021/01/14 10:45:21;;;;;;;;;;;3.50;99.90;;;;;;5052101;28;19920;-71
2021/01/14 10:47:47;;;;;;;;;;;3.50;99.90;;;;;;5052644;28;19917;-70
2021/01/14 10:50:23;;;;;;;;;;;3.60;99.90;;;;;;5053130;28;19919;-69
2021/01/14 10:52:54;;;;;;;;;;;3.60;99.90;;;;;;5051975;28;19920;-69
2021/01/14 10:55:20;;;;;;;;;;;3.60;99.90;;;;;;5054178;28;19925;-70
2021/01/14 10:57:50;;;;;;;;;;;3.50;99.90;;;;;;5052774;28;20007;-69
2021/01/14 11:00:16;;;;;;;;;;;3.50;99.90;;;;;;5053135;28;19912;-69
2021/01/14 11:02:42;;;;;;;;;;;3.50;99.90;;;;;;5050289;28;20401;-72
2021/01/14 11:05:08;;;;;;;;;;;3.40;99.90;;;;;;5052102;28;20067;-70
2021/01/14 11:07:34;;;;;;;;;;;3.40;99.90;;;;;;5052187;28;19935;-69
2021/01/14 11:10:05;;;;;;;;;;;3.30;99.90;;;;;;5050988;28;19913;-69
2021/01/14 11:12:30;;;;;;;;;;;3.30;99.90;;;;;;5029801;28;19951;-72
2021/01/14 11:14:56;;;;;;;;;;;3.40;99.90;;;;;;5050846;28;20006;-73
2021/01/14 11:17:21;;;;;;;;;;;3.40;99.90;;;;;;5050091;28;20459;-72
2021/01/14 11:19:47;;;;;;;;;;;3.50;99.90;;;;;;5050621;28;19916;-71
2021/01/14 11:22:12;;;;;;;;;;;3.70;99.90;;;;;;5049939;28;20026;-72
2021/01/14 11:24:38;;;;;;;;;;;3.50;99.90;;;;;;5050752;28;19946;-68
2021/01/14 11:27:03;;;;;;;;;;;3.70;99.90;;;;;;5050129;28;20251;-69
2021/01/14 11:29:32;;;;;;;;;;;3.80;99.90;;;;;;5050984;28;19970;-71
2021/01/14 11:31:59;;;;;;;;;;;3.80;99.90;;;;;;5051643;28;19920;-70
2021/01/14 11:34:25;;;;;;;;;;;3.70;99.90;;;;;;5051770;28;19917;-69
2021/01/14 11:36:50;;;;;;;;;;;3.80;99.90;;;;;;5042848;28;19924;-70
2021/01/14 11:39:16;;;;;;;;;;;3.90;99.90;;;;;;5053183;28;20053;-70
2021/01/14 11:41:41;;;;;;;;;;;3.80;99.90;;;;;;5055398;28;19920;-69
2021/01/14 11:44:07;;;;;;;;;;;3.70;99.90;;;;;;5059346;28;19927;-72
2021/01/14 11:46:32;;;;;;;;;;;3.10;99.90;;;;;;5055009;28;19913;-72
2021/01/14 11:48:58;;;;;;;;;;;2.90;99.90;;;;;;5052871;28;19972;-68
2021/01/14 11:51:23;;;;;;;;;;;2.80;99.90;;;;;;5051090;28;19924;-71
2021/01/14 11:53:49;;;;;;;;;;;2.90;99.90;;;;;;5050287;28;19967;-70
2021/01/14 11:56:15;;;;;;;;;;;3.00;99.90;;;;;;5050436;28;19920;-73
2021/01/14 11:58:40;;;;;;;;;;;3.10;99.90;;;;;;5050778;28;19920;-71
2021/01/14 12:01:06;;;;;;;;;;;3.30;99.90;;;;;;5050881;28;19916;-70
2021/01/14 12:03:33;;;;;;;;;;;3.40;99.90;;;;;;5050339;28;19917;-69
2021/01/14 12:05:58;;;;;;;;;;;3.40;99.90;;;;;;5050900;28;19919;-69
2021/01/14 12:08:24;;;;;;;;;;;3.20;99.90;;;;;;5050358;28;20007;-69
2021/01/14 12:10:49;;;;;;;;;;;3.10;99.90;;;;;;5049489;28;20368;-69
2021/01/14 12:13:15;;;;;;;;;;;3.00;99.90;;;;;;5053803;28;19920;-70
2021/01/14 12:15:40;;;;;;;;;;;2.90;99.90;;;;;;5050761;28;20295;-69
2021/01/14 12:18:06;;;;;;;;;;;3.00;99.90;;;;;;5049906;28;19959;-68
2021/01/14 12:20:31;;;;;;;;;;;3.00;99.90;;;;;;5051564;28;19923;-69
2021/01/14 12:22:57;;;;;;;;;;;3.00;99.90;;;;;;5049088;28;19914;-70
2021/01/14 12:25:22;;;;;;;;;;;3.00;99.90;;;;;;5049743;28;19913;-68
2021/01/14 12:27:48;;;;;;;;;;;2.90;99.90;;;;;;5049775;28;19927;-69
2021/01/14 12:30:14;;;;;;;;;;;2.90;99.90;;;;;;5050467;28;19997;-69
2021/01/14 12:32:39;;;;;;;;;;;2.90;99.90;;;;;;5051111;28;19909;-71
2021/01/14 12:35:05;;;;;;;;;;;2.90;99.90;;;;;;5032755;28;20030;-72
2021/01/14 12:37:32;;;;;;;;;;;3.00;99.90;;;;;;5050890;28;20008;-68
2021/01/14 12:39:57;;;;;;;;;;;3.00;99.90;;;;;;5050142;28;19917;-71
2021/01/14 12:42:23;;;;;;;;;;;3.10;99.90;;;;;;5050967;28;19923;-70
2021/01/14 12:44:48;;;;;;;;;;;3.10;99.90;;;;;;5048851;28;19919;-70
2021/01/14 12:47:14;;;;;;;;;;;3.00;99.90;;;;;;5048743;28;19913;-68
2021/01/14 12:49:39;;;;;;;;;;;3.00;99.90;;;;;;5050025;28;19966;-71
2021/01/14 12:52:05;;;;;;;;;;;2.90;99.90;;;;;;5049620;28;19917;-69
2021/01/14 12:54:30;;;;;;;;;;;2.90;99.90;;;;;;5049974;28;19920;-69
2021/01/14 12:56:56;;;;;;;;;;;3.00;99.90;;;;;;5050958;28;19913;-69
2021/01/14 12:59:21;;;;;;;;;;;3.00;99.90;;;;;;5049989;28;20033;-70
2021/01/14 13:01:47;;;;;;;;;;;3.00;99.90;;;;;;5051501;28;19917;-71
2021/01/14 13:04:16;;;;;;;;;;;3.00;99.90;;;;;;5051146;28;19909;-70
2021/01/14 13:06:42;;;;;;;;;;;3.00;99.90;;;;;;5049279;28;20046;-67
2021/01/14 13:09:08;;;;;;;;;;;3.10;99.90;;;;;;5031044;28;19917;-70
2021/01/14 13:11:34;;;;;;;;;;;3.10;99.90;;;;;;5050014;28;19920;-69
2021/01/14 13:14:00;;;;;;;;;;;3.10;99.90;;;;;;5050098;28;19924;-69
2021/01/14 13:16:35;;;;;;;;;;;3.10;99.90;;;;;;5053692;28;20478;-69
2021/01/14 13:19:01;;;;;;;;;;;3.20;99.90;;;;;;5053892;28;19923;-69
2021/01/14 13:21:33;;;;;;;;;;;3.20;99.90;;;;;;5053448;28;19913;-70
2021/01/14 13:24:00;;;;;;;;;;;3.20;99.90;;;;;;5034580;28;19959;-69
2021/01/14 13:26:26;;;;;;;;;;;3.30;99.90;;;;;;5052839;28;19924;-68
2021/01/14 13:28:51;;;;;;;;;;;3.40;99.90;;;;;;5035072;28;19921;-69
2021/01/14 13:31:17;;;;;;;;;;;3.30;99.90;;;;;;5052434;28;19982;-69
2021/01/14 13:33:42;;;;;;;;;;;3.30;99.90;;;;;;5052500;28;20009;-70
2021/01/14 13:36:08;;;;;;;;;;;3.20;99.90;;;;;;5034540;28;19948;-69
2021/01/14 13:38:33;;;;;;;;;;;3.10;99.90;;;;;;5052884;28;19917;-69
2021/01/14 13:40:59;;;;;;;;;;;3.10;99.90;;;;;;5052832;28;19959;-68
2021/01/14 13:43:24;;;;;;;;;;;2.90;99.90;;;;;;5054636;28;20392;-69
2021/01/14 13:45:57;;;;;;;;;;;2.80;99.90;;;;;;5053799;28;19916;-69
2021/01/14 13:48:22;;;;;;;;;;;2.70;99.90;;;;;;5047683;28;19976;-69
2021/01/14 13:50:47;;;;;;;;;;;2.60;99.90;;;;;;5055254;28;20409;-71
2021/01/14 13:53:13;;;;;;;;;;;2.50;99.90;;;;;;5053606;28;20015;-70
2021/01/14 13:55:41;;;;;;;;;;;2.30;99.90;;;;;;5054287;28;19913;-72
2021/01/14 13:58:11;;;;;;;;;;;2.20;99.90;;;;;;5052931;28;20453;-71
2021/01/14 14:00:36;;;;;;;;;;;2.10;99.90;;;;;;5053971;28;19959;-69
2021/01/14 14:03:02;;;;;;;;;;;2.10;99.90;;;;;;5052673;28;19921;-72
2021/01/14 14:05:28;;;;;;;;;;;2.00;99.90;;;;;;5052888;28;19979;-70
2021/01/14 14:07:53;;;;;;;;;;;2.00;99.90;;;;;;5054058;28;19959;-68
2021/01/14 14:10:19;;;;;;;;;;;2.10;99.90;;;;;;5053196;28;19992;-69
2021/01/14 14:12:44;;;;;;;;;;;2.10;99.90;;;;;;5060371;28;20007;-70
2021/01/14 14:15:10;;;;;;;;;;;2.00;99.90;;;;;;5053336;28;20361;-68
2021/01/14 14:17:35;;;;;;;;;;;2.00;99.90;;;;;;5052134;28;19990;-71
2021/01/14 14:20:01;;;;;;;;;;;2.00;99.90;;;;;;5068569;28;19990;-71
2021/01/14 14:22:26;;;;;;;;;;;1.90;99.90;;;;;;5052491;28;19913;-69
2021/01/14 14:24:52;;;;;;;;;;;1.90;99.90;;;;;;5052198;28;20393;-69
2021/01/14 14:27:17;;;;;;;;;;;1.90;99.90;;;;;;5052111;28;19921;-71
2021/01/14 14:29:43;;;;;;;;;;;1.80;99.90;;;;;;5052858;28;19917;-69